sensor_id;sensor_type;location;lat;lon;timestamp;pressure;altitude;pressure_sealevel;temperature;humidity
55914;BME280;58179;48.776;9.124;2023-09-30T00:01:01;98174.75;;;16.56;100.00
55914;BME280;58179;48.776;9.124;2023-09-30T00:03:28;98183.31;;;16.58;100.00
55914;BME280;58179;48.776;9.124;2023-09-30T00:05:54;98179.56;;;16.59;100.00
55914;BME280;58179;48.776;9.124;2023-09-30T00:08:22;98170.75;;;16.58;100.00
55914;BME280;58179;48.776;9.124;2023-09-30T00:10:48;98163.81;;;16.57;100.00
55914;BME280;58179;48.776;9.124;2023-09-30T00:13:14;98164.06;;;16.56;100.00
55914;BME280;58179;48.776;9.124;2023-09-30T00:15:40;98155.25;;;16.50;100.00
55914;BME280;58179;48.776;9.124;2023-09-30T00:18:07;98149.94;;;16.45;100.00
55914;BME280;58179;48.776;9.124;2023-09-30T00:20:33;98155.81;;;16.37;100.00
55914;BME280;58179;48.776;9.124;2023-09-30T00:22:59;98149.66;;;16.32;100.00
55914;BME280;58179;48.776;9.124;2023-09-30T00:25:27;98152.63;;;16.30;100.00
55914;BME280;58179;48.776;9.124;2023-09-30T00:27:54;98155.28;;;16.25;100.00
55914;BME280;58179;48.776;9.124;2023-09-30T00:30:20;98155.03;;;16.21;100.00
55914;BME280;58179;48.776;9.124;2023-09-30T00:32:47;98160.09;;;16.18;100.00
55914;BME280;58179;48.776;9.124;2023-09-30T00:35:13;98161.44;;;16.15;100.00
55914;BME280;58179;48.776;9.124;2023-09-30T00:37:40;98169.47;;;16.15;100.00
55914;BME280;58179;48.776;9.124;2023-09-30T00:40:08;98166.50;;;16.12;100.00
55914;BME280;58179;48.776;9.124;2023-09-30T00:42:41;98167.59;;;16.11;100.00
55914;BME280;58179;48.776;9.124;2023-09-30T00:45:08;98173.97;;;16.10;100.00
55914;BME280;58179;48.776;9.124;2023-09-30T00:47:36;98170.00;;;16.07;100.00
55914;BME280;58179;48.776;9.124;2023-09-30T00:50:03;98176.66;;;16.05;100.00
55914;BME280;58179;48.776;9.124;2023-09-30T00:52:32;98175.88;;;16.04;100.00
55914;BME280;58179;48.776;9.124;2023-09-30T00:54:59;98178.53;;;16.04;100.00
55914;BME280;58179;48.776;9.124;2023-09-30T00:57:26;98171.31;;;16.05;100.00
55914;BME280;58179;48.776;9.124;2023-09-30T00:59:55;98170.81;;;16.08;100.00
55914;BME280;58179;48.776;9.124;2023-09-30T01:02:22;98165.97;;;16.10;100.00
55914;BME280;58179;48.776;9.124;2023-09-30T01:04:49;98168.94;;;16.13;100.00
55914;BME280;58179;48.776;9.124;2023-09-30T01:07:15;98173.19;;;16.14;100.00
55914;BME280;58179;48.776;9.124;2023-09-30T01:09:42;98171.03;;;16.16;100.00
55914;BME280;58179;48.776;9.124;2023-09-30T01:12:08;98175.31;;;16.17;100.00
55914;BME280;58179;48.776;9.124;2023-09-30T01:14:35;98167.31;;;16.17;100.00
55914;BME280;58179;48.776;9.124;2023-09-30T01:17:03;98174.25;;;16.18;100.00
55914;BME280;58179;48.776;9.124;2023-09-30T01:19:30;98178.53;;;16.19;100.00
55914;BME280;58179;48.776;9.124;2023-09-30T01:21:57;98170.53;;;16.19;100.00
55914;BME280;58179;48.776;9.124;2023-09-30T01:24:25;98172.38;;;16.19;100.00
55914;BME280;58179;48.776;9.124;2023-09-30T01:26:51;98172.66;;;16.17;100.00
55914;BME280;58179;48.776;9.124;2023-09-30T01:29:18;98177.47;;;16.15;100.00
55914;BME280;58179;48.776;9.124;2023-09-30T01:31:45;98172.41;;;16.14;100.00
55914;BME280;58179;48.776;9.124;2023-09-30T01:34:14;98180.41;;;16.14;100.00
55914;BME280;58179;48.776;9.124;2023-09-30T01:36:41;98181.47;;;16.13;100.00
55914;BME280;58179;48.776;9.124;2023-09-30T01:39:09;98178.81;;;16.13;100.00
55914;BME280;58179;48.776;9.124;2023-09-30T01:41:36;98176.94;;;16.13;100.00
55914;BME280;58179;48.776;9.124;2023-09-30T01:44:02;98170.53;;;16.14;100.00
55914;BME280;58179;48.776;9.124;2023-09-30T01:46:29;98182.28;;;16.13;100.00
55914;BME280;58179;48.776;9.124;2023-09-30T01:48:55;98176.41;;;16.11;100.00
55914;BME280;58179;48.776;9.124;2023-09-30T01:51:21;98175.03;;;16.09;100.00
55914;BME280;58179;48.776;9.124;2023-09-30T01:53:47;98170.00;;;16.07;100.00
55914;BME280;58179;48.776;9.124;2023-09-30T01:56:15;98164.66;;;16.07;100.00
55914;BME280;58179;48.776;9.124;2023-09-30T01:58:42;98167.59;;;16.06;100.00
55914;BME280;58179;48.776;9.124;2023-09-30T02:01:09;98161.44;;;16.05;100.00
55914;BME280;58179;48.776;9.124;2023-09-30T02:03:35;98166.50;;;16.02;100.00
55914;BME280;58179;48.776;9.124;2023-09-30T02:06:02;98169.72;;;15.99;100.00
55914;BME280;58179;48.776;9.124;2023-09-30T02:08:29;98171.06;;;15.91;100.00
55914;BME280;58179;48.776;9.124;2023-09-30T02:10:56;98167.03;;;15.83;100.00
55914;BME280;58179;48.776;9.124;2023-09-30T02:13:23;98165.16;;;15.79;100.00
55914;BME280;58179;48.776;9.124;2023-09-30T02:15:50;98175.81;;;15.74;100.00
55914;BME280;58179;48.776;9.124;2023-09-30T02:18:16;98172.34;;;15.68;100.00
55914;BME280;58179;48.776;9.124;2023-09-30T02:20:43;98181.44;;;15.67;100.00
55914;BME280;58179;48.776;9.124;2023-09-30T02:23:11;98181.13;;;15.64;100.00
55914;BME280;58179;48.776;9.124;2023-09-30T02:25:37;98181.13;;;15.64;100.00
55914;BME280;58179;48.776;9.124;2023-09-30T02:28:04;98183.53;;;15.60;100.00
55914;BME280;58179;48.776;9.124;2023-09-30T02:30:32;98188.63;;;15.62;100.00
55914;BME280;58179;48.776;9.124;2023-09-30T02:32:58;98195.03;;;15.61;100.00
55914;BME280;58179;48.776;9.124;2023-09-30T02:35:25;98188.88;;;15.60;100.00
55914;BME280;58179;48.776;9.124;2023-09-30T02:37:52;98195.56;;;15.63;100.00
55914;BME280;58179;48.776;9.124;2023-09-30T02:40:18;98192.91;;;15.63;100.00
55914;BME280;58179;48.776;9.124;2023-09-30T02:42:46;98194.78;;;15.62;100.00
55914;BME280;58179;48.776;9.124;2023-09-30T02:45:15;98185.69;;;15.63;100.00
55914;BME280;58179;48.776;9.124;2023-09-30T02:47:44;98192.34;;;15.66;100.00
55914;BME280;58179;48.776;9.124;2023-09-30T02:50:10;98196.09;;;15.65;100.00
55914;BME280;58179;48.776;9.124;2023-09-30T02:52:40;98187.03;;;15.66;100.00
55914;BME280;58179;48.776;9.124;2023-09-30T02:55:09;98187.03;;;15.66;100.00
55914;BME280;58179;48.776;9.124;2023-09-30T02:57:35;98187.28;;;15.64;100.00
55914;BME280;58179;48.776;9.124;2023-09-30T03:00:02;98191.03;;;15.63;100.00
55914;BME280;58179;48.776;9.124;2023-09-30T03:02:38;98198.25;;;15.63;100.00
55914;BME280;58179;48.776;9.124;2023-09-30T03:05:06;98197.94;;;15.59;100.00
55914;BME280;58179;48.776;9.124;2023-09-30T03:07:33;98198.50;;;15.56;100.00
55914;BME280;58179;48.776;9.124;2023-09-30T03:09:59;98220.09;;;15.55;100.00
55914;BME280;58179;48.776;9.124;2023-09-30T03:12:30;98226.19;;;15.50;100.00
55914;BME280;58179;48.776;9.124;2023-09-30T03:14:57;98228.03;;;15.44;100.00
55914;BME280;58179;48.776;9.124;2023-09-30T03:17:24;98228.53;;;15.41;100.00
55914;BME280;58179;48.776;9.124;2023-09-30T03:19:51;98230.16;;;15.42;100.00
55914;BME280;58179;48.776;9.124;2023-09-30T03:22:19;98232.00;;;15.42;100.00
55914;BME280;58179;48.776;9.124;2023-09-30T03:24:45;98221.09;;;15.43;100.00
55914;BME280;58179;48.776;9.124;2023-09-30T03:27:11;98229.91;;;15.44;100.00
55914;BME280;58179;48.776;9.124;2023-09-30T03:29:38;98225.09;;;15.46;100.00
55914;BME280;58179;48.776;9.124;2023-09-30T03:32:04;98226.16;;;15.45;100.00
55914;BME280;58179;48.776;9.124;2023-09-30T03:34:30;98226.16;;;15.45;100.00
55914;BME280;58179;48.776;9.124;2023-09-30T03:36:56;98229.91;;;15.44;100.00
55914;BME280;58179;48.776;9.124;2023-09-30T03:39:26;98222.69;;;15.44;100.00
55914;BME280;58179;48.776;9.124;2023-09-30T03:41:54;98210.41;;;15.43;100.00
55914;BME280;58179;48.776;9.124;2023-09-30T03:44:20;98209.59;;;15.43;100.00
55914;BME280;58179;48.776;9.124;2023-09-30T03:46:46;98205.34;;;15.42;100.00
55914;BME280;58179;48.776;9.124;2023-09-30T03:49:12;98208.00;;;15.42;100.00
55914;BME280;58179;48.776;9.124;2023-09-30T03:51:39;98199.47;;;15.40;100.00
55914;BME280;58179;48.776;9.124;2023-09-30T03:54:05;98193.34;;;15.39;100.00
55914;BME280;58179;48.776;9.124;2023-09-30T03:56:34;98194.66;;;15.37;100.00
55914;BME280;58179;48.776;9.124;2023-09-30T03:59:00;98197.84;;;15.34;100.00
55914;BME280;58179;48.776;9.124;2023-09-30T04:01:26;98204.25;;;15.33;100.00
55914;BME280;58179;48.776;9.124;2023-09-30T04:03:53;98203.72;;;15.31;100.00
55914;BME280;58179;48.776;9.124;2023-09-30T04:06:22;98202.09;;;15.30;100.00
55914;BME280;58179;48.776;9.124;2023-09-30T04:08:48;98207.94;;;15.27;100.00
55914;BME280;58179;48.776;9.124;2023-09-30T04:11:14;98218.91;;;15.25;100.00
55914;BME280;58179;48.776;9.124;2023-09-30T04:13:45;98219.97;;;15.24;100.00
55914;BME280;58179;48.776;9.124;2023-09-30T04:16:12;98204.47;;;15.21;100.00
55914;BME280;58179;48.776;9.124;2023-09-30T04:18:38;98210.59;;;15.22;100.00
55914;BME280;58179;48.776;9.124;2023-09-30T04:21:07;98205.53;;;15.20;100.00
55914;BME280;58179;48.776;9.124;2023-09-30T04:23:33;98213.25;;;15.22;100.00
55914;BME280;58179;48.776;9.124;2023-09-30T04:26:02;98207.38;;;15.20;100.00
55914;BME280;58179;48.776;9.124;2023-09-30T04:28:29;98199.13;;;15.16;100.00
55914;BME280;58179;48.776;9.124;2023-09-30T04:30:56;98198.56;;;15.14;100.00
55914;BME280;58179;48.776;9.124;2023-09-30T04:33:24;98201.75;;;15.11;100.00
55914;BME280;58179;48.776;9.124;2023-09-30T04:35:50;98214.31;;;15.10;100.00
55914;BME280;58179;48.776;9.124;2023-09-30T04:38:17;98209.72;;;15.06;100.00
55914;BME280;58179;48.776;9.124;2023-09-30T04:40:44;98223.31;;;15.04;100.00
55914;BME280;58179;48.776;9.124;2023-09-30T04:43:10;98228.13;;;15.02;100.00
55914;BME280;58179;48.776;9.124;2023-09-30T04:45:36;98232.91;;;15.00;100.00
55914;BME280;58179;48.776;9.124;2023-09-30T04:48:04;98227.81;;;14.99;100.00
55914;BME280;58179;48.776;9.124;2023-09-30T04:50:30;98233.72;;;15.01;100.00
55914;BME280;58179;48.776;9.124;2023-09-30T04:52:57;98234.25;;;15.03;100.00
55914;BME280;58179;48.776;9.124;2023-09-30T04:55:26;98234.25;;;15.03;100.00
55914;BME280;58179;48.776;9.124;2023-09-30T04:57:52;98247.06;;;15.06;100.00
55914;BME280;58179;48.776;9.124;2023-09-30T05:00:20;98243.34;;;15.07;100.00
55914;BME280;58179;48.776;9.124;2023-09-30T05:02:51;98252.13;;;15.07;100.00
55914;BME280;58179;48.776;9.124;2023-09-30T05:05:19;98257.47;;;15.07;100.00
55914;BME280;58179;48.776;9.124;2023-09-30T05:07:45;98258.53;;;15.06;100.00
55914;BME280;58179;48.776;9.124;2023-09-30T05:10:13;98252.38;;;15.06;100.00
55914;BME280;58179;48.776;9.124;2023-09-30T05:12:42;98259.34;;;15.07;100.00
55914;BME280;58179;48.776;9.124;2023-09-30T05:15:11;98262.00;;;15.07;100.00
55914;BME280;58179;48.776;9.124;2023-09-30T05:17:39;98256.91;;;15.05;100.00
55914;BME280;58179;48.776;9.124;2023-09-30T05:20:06;98258.78;;;15.05;100.00
55914;BME280;58179;48.776;9.124;2023-09-30T05:22:34;98262.25;;;15.05;100.00
55914;BME280;58179;48.776;9.124;2023-09-30T05:25:00;98253.44;;;15.05;100.00
55914;BME280;58179;48.776;9.124;2023-09-30T05:27:26;98249.72;;;15.06;100.00
55914;BME280;58179;48.776;9.124;2023-09-30T05:29:53;98249.72;;;15.06;100.00
55914;BME280;58179;48.776;9.124;2023-09-30T05:32:20;98246.25;;;15.05;100.00
55914;BME280;58179;48.776;9.124;2023-09-30T05:34:47;98243.31;;;15.02;100.00
55914;BME280;58179;48.776;9.124;2023-09-30T05:37:14;98237.69;;;14.98;100.00
55914;BME280;58179;48.776;9.124;2023-09-30T05:39:41;98245.66;;;14.93;100.00
55914;BME280;58179;48.776;9.124;2023-09-30T05:42:08;98244.56;;;14.89;100.00
55914;BME280;58179;48.776;9.124;2023-09-30T05:44:35;98246.94;;;14.86;100.00
55914;BME280;58179;48.776;9.124;2023-09-30T05:47:01;98245.84;;;14.82;100.00
55914;BME280;58179;48.776;9.124;2023-09-30T05:49:27;98250.34;;;14.76;100.00
55914;BME280;58179;48.776;9.124;2023-09-30T05:51:53;98254.84;;;14.70;100.00
55914;BME280;58179;48.776;9.124;2023-09-30T05:54:21;98267.84;;;14.67;100.00
55914;BME280;58179;48.776;9.124;2023-09-30T05:56:48;98274.25;;;14.66;100.00
55914;BME280;58179;48.776;9.124;2023-09-30T05:59:15;98273.72;;;14.64;100.00
55914;BME280;58179;48.776;9.124;2023-09-30T06:01:41;98277.44;;;14.63;100.00
55914;BME280;58179;48.776;9.124;2023-09-30T06:04:08;98272.09;;;14.63;100.00
55914;BME280;58179;48.776;9.124;2023-09-30T06:06:34;98265.72;;;14.64;100.00
55914;BME280;58179;48.776;9.124;2023-09-30T06:09:00;98274.00;;;14.67;100.00
55914;BME280;58179;48.776;9.124;2023-09-30T06:11:28;98275.34;;;14.70;100.00
55914;BME280;58179;48.776;9.124;2023-09-30T06:13:58;98286.03;;;14.75;100.00
55914;BME280;58179;48.776;9.124;2023-09-30T06:16:28;98301.00;;;14.81;100.00
55914;BME280;58179;48.776;9.124;2023-09-30T06:18:55;98308.81;;;14.88;100.00
55914;BME280;58179;48.776;9.124;2023-09-30T06:21:23;98301.66;;;14.93;100.00
55914;BME280;58179;48.776;9.124;2023-09-30T06:23:50;98310.22;;;15.00;100.00
55914;BME280;58179;48.776;9.124;2023-09-30T06:26:19;98305.47;;;15.07;100.00
55914;BME280;58179;48.776;9.124;2023-09-30T06:28:47;98307.63;;;15.10;100.00
55914;BME280;58179;48.776;9.124;2023-09-30T06:31:15;98306.03;;;15.15;100.00
55914;BME280;58179;48.776;9.124;2023-09-30T06:33:41;98303.13;;;15.16;100.00
55914;BME280;58179;48.776;9.124;2023-09-30T06:36:11;98305.25;;;15.19;100.00
55914;BME280;58179;48.776;9.124;2023-09-30T06:38:40;98306.88;;;15.20;100.00
55914;BME280;58179;48.776;9.124;2023-09-30T06:41:08;98309.84;;;15.24;100.00
55914;BME280;58179;48.776;9.124;2023-09-30T06:43:34;98308.50;;;15.26;100.00
55914;BME280;58179;48.776;9.124;2023-09-30T06:46:07;98313.63;;;15.33;100.00
55914;BME280;58179;48.776;9.124;2023-09-30T06:48:36;98320.88;;;15.42;100.00
55914;BME280;58179;48.776;9.124;2023-09-30T06:51:02;98322.31;;;15.55;100.00
55914;BME280;58179;48.776;9.124;2023-09-30T06:53:29;98322.88;;;15.67;100.00
55914;BME280;58179;48.776;9.124;2023-09-30T06:55:55;98326.94;;;15.80;100.00
55914;BME280;58179;48.776;9.124;2023-09-30T06:58:21;98340.34;;;15.90;100.00
55914;BME280;58179;48.776;9.124;2023-09-30T07:00:48;98343.00;;;15.95;100.00
55914;BME280;58179;48.776;9.124;2023-09-30T07:03:15;98325.94;;;15.96;100.00
55914;BME280;58179;48.776;9.124;2023-09-30T07:05:43;98325.94;;;15.96;100.00
55914;BME280;58179;48.776;9.124;2023-09-30T07:08:09;98321.94;;;15.94;100.00
55914;BME280;58179;48.776;9.124;2023-09-30T07:10:35;98315.25;;;15.91;100.00
55914;BME280;58179;48.776;9.124;2023-09-30T07:13:02;98313.88;;;15.88;100.00
55914;BME280;58179;48.776;9.124;2023-09-30T07:15:29;98314.44;;;15.85;100.00
55914;BME280;58179;48.776;9.124;2023-09-30T07:17:56;98321.09;;;15.83;100.00
55914;BME280;58179;48.776;9.124;2023-09-30T07:20:22;98322.94;;;15.82;100.00
55914;BME280;58179;48.776;9.124;2023-09-30T07:22:50;98323.75;;;15.83;100.00
55914;BME280;58179;48.776;9.124;2023-09-30T07:25:16;98326.97;;;15.85;100.00
55914;BME280;58179;48.776;9.124;2023-09-30T07:27:43;98343.25;;;15.88;100.00
55914;BME280;58179;48.776;9.124;2023-09-30T07:30:10;98344.34;;;15.93;100.00
55914;BME280;58179;48.776;9.124;2023-09-30T07:32:38;98355.59;;;16.00;100.00
55914;BME280;58179;48.776;9.124;2023-09-30T07:35:05;98361.25;;;16.08;100.00
55914;BME280;58179;48.776;9.124;2023-09-30T07:37:31;98350.56;;;16.13;100.00
55914;BME280;58179;48.776;9.124;2023-09-30T07:39:59;98335.59;;;16.17;100.00
55914;BME280;58179;48.776;9.124;2023-09-30T07:42:25;98333.47;;;16.19;100.00
55914;BME280;58179;48.776;9.124;2023-09-30T07:44:51;98342.28;;;16.25;100.00
55914;BME280;58179;48.776;9.124;2023-09-30T07:47:18;98344.75;;;16.37;100.00
55914;BME280;58179;48.776;9.124;2023-09-30T07:49:45;98349.03;;;16.53;100.00
55914;BME280;58179;48.776;9.124;2023-09-30T07:52:11;98351.75;;;16.68;100.00
55914;BME280;58179;48.776;9.124;2023-09-30T07:54:37;98359.78;;;16.83;100.00
55914;BME280;58179;48.776;9.124;2023-09-30T07:57:05;98366.47;;;16.96;100.00
55914;BME280;58179;48.776;9.124;2023-09-30T07:59:31;98367.25;;;17.12;100.00
55914;BME280;58179;48.776;9.124;2023-09-30T08:01:59;98368.31;;;17.26;100.00
55914;BME280;58179;48.776;9.124;2023-09-30T08:04:25;98371.50;;;17.43;100.00
55914;BME280;58179;48.776;9.124;2023-09-30T08:06:51;98367.19;;;17.62;100.00
55914;BME280;58179;48.776;9.124;2023-09-30T08:09:17;98363.41;;;17.68;100.00
55914;BME280;58179;48.776;9.124;2023-09-30T08:11:44;98354.28;;;17.79;100.00
55914;BME280;58179;48.776;9.124;2023-09-30T08:14:12;98353.41;;;17.99;100.00
55914;BME280;58179;48.776;9.124;2023-09-30T08:16:38;98346.34;;;18.18;100.00
55914;BME280;58179;48.776;9.124;2023-09-30T08:19:05;98348.41;;;18.32;100.00
55914;BME280;58179;48.776;9.124;2023-09-30T08:21:31;98355.56;;;18.46;100.00
55914;BME280;58179;48.776;9.124;2023-09-30T08:23:57;98345.03;;;18.55;100.00
55914;BME280;58179;48.776;9.124;2023-09-30T08:26:24;98356.03;;;18.59;100.00
55914;BME280;58179;48.776;9.124;2023-09-30T08:28:50;98355.25;;;18.53;100.00
55914;BME280;58179;48.776;9.124;2023-09-30T08:31:17;98347.78;;;18.45;100.00
55914;BME280;58179;48.776;9.124;2023-09-30T08:33:44;98352.31;;;18.49;100.00
55914;BME280;58179;48.776;9.124;2023-09-30T08:36:11;98353.03;;;18.65;100.00
55914;BME280;58179;48.776;9.124;2023-09-30T08:38:39;98357.47;;;18.80;100.00
55914;BME280;58179;48.776;9.124;2023-09-30T08:41:06;98351.81;;;18.86;100.00
55914;BME280;58179;48.776;9.124;2023-09-30T08:43:38;98344.06;;;18.80;100.00
55914;BME280;58179;48.776;9.124;2023-09-30T08:46:05;98332.91;;;19.02;100.00
55914;BME280;58179;48.776;9.124;2023-09-30T08:48:33;98332.44;;;19.23;100.00
55914;BME280;58179;48.776;9.124;2023-09-30T08:51:00;98341.59;;;19.46;100.00
55914;BME280;58179;48.776;9.124;2023-09-30T08:53:27;98348.75;;;19.56;100.00
55914;BME280;58179;48.776;9.124;2023-09-30T08:55:55;98342.81;;;19.59;100.00
55914;BME280;58179;48.776;9.124;2023-09-30T08:58:24;98332.41;;;19.52;100.00
55914;BME280;58179;48.776;9.124;2023-09-30T09:00:52;98332.81;;;19.64;100.00
55914;BME280;58179;48.776;9.124;2023-09-30T09:03:19;98331.63;;;19.76;100.00
55914;BME280;58179;48.776;9.124;2023-09-30T09:05:53;98322.59;;;19.85;100.00
55914;BME280;58179;48.776;9.124;2023-09-30T09:08:26;98325.66;;;19.79;100.00
55914;BME280;58179;48.776;9.124;2023-09-30T09:10:56;98337.66;;;19.62;100.00
55914;BME280;58179;48.776;9.124;2023-09-30T09:13:23;98333.09;;;19.34;100.00
55914;BME280;58179;48.776;9.124;2023-09-30T09:15:49;98333.59;;;19.12;100.00
55914;BME280;58179;48.776;9.124;2023-09-30T09:18:31;98355.94;;;19.03;100.00
55914;BME280;58179;48.776;9.124;2023-09-30T09:21:10;98352.25;;;18.99;100.00
55914;BME280;58179;48.776;9.124;2023-09-30T09:23:40;98346.59;;;19.00;100.00
55914;BME280;58179;48.776;9.124;2023-09-30T09:26:06;98345.00;;;18.99;100.00
55914;BME280;58179;48.776;9.124;2023-09-30T09:28:34;98336.66;;;19.01;100.00
55914;BME280;58179;48.776;9.124;2023-09-30T09:31:01;98346.59;;;19.00;100.00
55914;BME280;58179;48.776;9.124;2023-09-30T09:33:35;98354.41;;;18.97;100.00
55914;BME280;58179;48.776;9.124;2023-09-30T09:36:03;98339.16;;;18.92;100.00
55914;BME280;58179;48.776;9.124;2023-09-30T09:38:44;98333.53;;;18.88;100.00
55914;BME280;58179;48.776;9.124;2023-09-30T09:41:10;98334.13;;;18.85;100.00
55914;BME280;58179;48.776;9.124;2023-09-30T09:43:37;98332.50;;;18.84;100.00
55914;BME280;58179;48.776;9.124;2023-09-30T09:46:08;98326.88;;;18.86;100.00
55914;BME280;58179;48.776;9.124;2023-09-30T09:48:35;98325.75;;;18.87;100.00
55914;BME280;58179;48.776;9.124;2023-09-30T09:51:02;98332.84;;;18.78;100.00
55914;BME280;58179;48.776;9.124;2023-09-30T09:53:30;98326.75;;;18.67;100.00
55914;BME280;58179;48.776;9.124;2023-09-30T09:56:01;98324.47;;;18.45;100.00
55914;BME280;58179;48.776;9.124;2023-09-30T09:58:32;98326.38;;;18.35;100.00
55914;BME280;58179;48.776;9.124;2023-09-30T10:01:01;98325.63;;;18.34;100.00
55914;BME280;58179;48.776;9.124;2023-09-30T10:03:27;98336.56;;;18.38;100.00
55914;BME280;58179;48.776;9.124;2023-09-30T10:05:54;98339.22;;;18.43;100.00
55914;BME280;58179;48.776;9.124;2023-09-30T10:08:22;98330.31;;;18.52;100.00
55914;BME280;58179;48.776;9.124;2023-09-30T10:10:56;98340.75;;;18.93;100.00
55914;BME280;58179;48.776;9.124;2023-09-30T10:13:51;98331.84;;;19.26;100.00
55914;BME280;58179;48.776;9.124;2023-09-30T10:16:48;98320.66;;;19.43;100.00
55914;BME280;58179;48.776;9.124;2023-09-30T10:19:15;98317.78;;;19.63;100.00
55914;BME280;58179;48.776;9.124;2023-09-30T10:24:47;98313.72;;;19.66;100.00
55914;BME280;58179;48.776;9.124;2023-09-30T10:27:32;98315.22;;;19.53;100.00
55914;BME280;58179;48.776;9.124;2023-09-30T10:30:07;98311.63;;;19.34;100.00
55914;BME280;58179;48.776;9.124;2023-09-30T10:33:08;98317.22;;;19.14;100.00
55914;BME280;58179;48.776;9.124;2023-09-30T10:35:45;98315.22;;;18.95;100.00
55914;BME280;58179;48.776;9.124;2023-09-30T10:38:37;98318.56;;;18.82;100.00
55914;BME280;58179;48.776;9.124;2023-09-30T10:41:04;98313.84;;;18.69;100.00
55914;BME280;58179;48.776;9.124;2023-09-30T10:43:31;98313.13;;;18.59;100.00
55914;BME280;58179;48.776;9.124;2023-09-30T10:45:59;98309.94;;;18.57;100.00
55914;BME280;58179;48.776;9.124;2023-09-30T10:48:35;98316.06;;;18.57;100.00
55914;BME280;58179;48.776;9.124;2023-09-30T10:51:14;98301.66;;;18.48;100.00
55914;BME280;58179;48.776;9.124;2023-09-30T10:53:45;98302.75;;;18.42;100.00
55914;BME280;58179;48.776;9.124;2023-09-30T10:56:12;98296.03;;;18.44;100.00
55914;BME280;58179;48.776;9.124;2023-09-30T10:58:42;98287.44;;;18.47;100.00
55914;BME280;58179;48.776;9.124;2023-09-30T11:01:11;98294.13;;;18.50;100.00
55914;BME280;58179;48.776;9.124;2023-09-30T11:03:38;98296.22;;;18.63;100.00
55914;BME280;58179;48.776;9.124;2023-09-30T11:06:04;98294.50;;;18.72;100.00
55914;BME280;58179;48.776;9.124;2023-09-30T11:08:31;98286.03;;;18.89;100.00
55914;BME280;58179;48.776;9.124;2023-09-30T11:10:58;98279.84;;;18.93;100.00
55914;BME280;58179;48.776;9.124;2023-09-30T11:13:32;98275.78;;;18.96;100.00
55914;BME280;58179;48.776;9.124;2023-09-30T11:16:01;98276.56;;;19.02;100.00
55914;BME280;58179;48.776;9.124;2023-09-30T11:18:30;98263.44;;;19.24;100.00
55914;BME280;58179;48.776;9.124;2023-09-30T11:21:04;98269.88;;;19.70;100.00
55914;BME280;58179;48.776;9.124;2023-09-30T11:23:31;98264.75;;;20.12;100.00
55914;BME280;58179;48.776;9.124;2023-09-30T11:25:57;98261.72;;;20.37;100.00
55914;BME280;58179;48.776;9.124;2023-09-30T11:28:23;98262.59;;;20.65;100.00
55914;BME280;58179;48.776;9.124;2023-09-30T11:30:55;98261.66;;;20.88;100.00
55914;BME280;58179;48.776;9.124;2023-09-30T11:33:21;98262.44;;;21.35;100.00
55914;BME280;58179;48.776;9.124;2023-09-30T11:36:01;98265.69;;;21.86;100.00
55914;BME280;58179;48.776;9.124;2023-09-30T11:38:27;98266.38;;;22.28;100.00
55914;BME280;58179;48.776;9.124;2023-09-30T11:41:00;98273.59;;;22.55;100.00
55914;BME280;58179;48.776;9.124;2023-09-30T11:43:28;98267.50;;;22.71;100.00
55914;BME280;58179;48.776;9.124;2023-09-30T11:46:05;98262.31;;;22.75;100.00
55914;BME280;58179;48.776;9.124;2023-09-30T11:48:31;98265.88;;;22.62;100.00
55914;BME280;58179;48.776;9.124;2023-09-30T11:51:00;98262.47;;;22.34;100.00
55914;BME280;58179;48.776;9.124;2023-09-30T11:53:29;98255.41;;;22.02;100.00
55914;BME280;58179;48.776;9.124;2023-09-30T11:55:56;98249.03;;;21.71;100.00
55914;BME280;58179;48.776;9.124;2023-09-30T11:58:25;98253.34;;;21.44;100.00
55914;BME280;58179;48.776;9.124;2023-09-30T12:00:54;98258.84;;;21.26;100.00
55914;BME280;58179;48.776;9.124;2023-09-30T12:03:20;98260.19;;;21.09;100.00
55914;BME280;58179;48.776;9.124;2023-09-30T12:05:47;98276.03;;;20.97;100.00
55914;BME280;58179;48.776;9.124;2023-09-30T12:08:15;98273.31;;;20.83;100.00
55914;BME280;58179;48.776;9.124;2023-09-30T12:10:41;98266.09;;;20.65;100.00
55914;BME280;58179;48.776;9.124;2023-09-30T12:13:07;98269.16;;;20.59;100.00
55914;BME280;58179;48.776;9.124;2023-09-30T12:15:33;98279.19;;;20.53;100.00
55914;BME280;58179;48.776;9.124;2023-09-30T12:17:59;98266.34;;;20.50;100.00
55914;BME280;58179;48.776;9.124;2023-09-30T12:20:25;98268.22;;;20.50;100.00
55914;BME280;58179;48.776;9.124;2023-09-30T12:22:52;98261.47;;;20.52;100.00
55914;BME280;58179;48.776;9.124;2023-09-30T12:25:21;98266.28;;;20.69;100.00
55914;BME280;58179;48.776;9.124;2023-09-30T12:27:47;98263.22;;;21.21;100.00
55914;BME280;58179;48.776;9.124;2023-09-30T12:30:14;98263.66;;;22.06;100.00
55914;BME280;58179;48.776;9.124;2023-09-30T12:32:40;98254.47;;;22.96;100.00
55914;BME280;58179;48.776;9.124;2023-09-30T12:35:07;98249.84;;;23.67;100.00
55914;BME280;58179;48.776;9.124;2023-09-30T12:37:33;98246.59;;;24.30;100.00
55914;BME280;58179;48.776;9.124;2023-09-30T12:39:59;98255.88;;;25.01;100.00
55914;BME280;58179;48.776;9.124;2023-09-30T12:42:26;98241.94;;;25.58;100.00
55914;BME280;58179;48.776;9.124;2023-09-30T12:44:54;98245.31;;;26.26;100.00
55914;BME280;58179;48.776;9.124;2023-09-30T12:47:20;98244.56;;;26.71;99.07
55914;BME280;58179;48.776;9.124;2023-09-30T12:49:46;98248.78;;;27.25;98.17
55914;BME280;58179;48.776;9.124;2023-09-30T12:52:12;98238.34;;;27.76;96.69
55914;BME280;58179;48.776;9.124;2023-09-30T12:54:38;98237.81;;;28.23;94.54
55914;BME280;58179;48.776;9.124;2023-09-30T12:57:05;98240.06;;;28.33;92.24